Flight Track Log - Related Links

Times and Time Zones

All times are in EDT time to prevent confusion due to time zone crossing. See the SWA1607 flight status page for this flight to view local times or setup timezone preferences in your user account.

Time Position Orientation Groundspeed Altitude Reporting Facility
EDT Latitude Longitude Course Direction KTS MPH feet Rate Location/Type
Sun 01:03:09 PM 33.6167 -117.9000 203° Southwest 164 189 2,600  Level Southern California TRACON
Sun 01:04:21 PM 33.5611 -117.9169 194° South 183 211 4,700 2,373 Climbing Los Angeles Center
Sun 01:05:23 PM 33.4992 -117.9667 214° Southwest 245 282 7,900 2,903 Climbing Los Angeles Center
Sun 01:06:25 PM 33.4289 -118.0239 214° Southwest 282 325 10,700 3,048 Climbing Los Angeles Center
Sun 01:07:27 PM 33.3519 -118.0956 218° Southwest 345 397 14,200 3,408 Climbing Los Angeles Center
Sun 01:08:30 PM 33.3558 -118.2381 272° West 364 419 17,800 3,120 Climbing Los Angeles Center
Sun 01:09:32 PM 33.3744 -118.3647 280° West 385 443 20,700 2,516 Climbing Los Angeles Center
Sun 01:10:34 PM 33.4672 -118.4225 333° Northwest 399 459 23,000 2,129 Climbing Los Angeles Center
Sun 01:11:36 PM 33.5797 -118.4256 359° North 401 461 25,100 2,081 Climbing Los Angeles Center
Sun 01:12:38 PM 33.7006 -118.4294 358° North 419 482 27,300 2,081 Climbing Los Angeles Center
Sun 01:13:40 PM 33.8292 -118.4319 359° North 439 505 29,400 2,081 Climbing Los Angeles Center
Sun 01:14:42 PM 33.9519 -118.4439 355° North 442 509 31,600 1,984 Climbing Los Angeles Center
Sun 01:15:44 PM 34.0619 -118.4947 339° North 426 490 33,500 1,790 Climbing Los Angeles Center
Sun 01:16:46 PM 34.1711 -118.5489 338° Northwest 425 489 35,300 1,210 Climbing Los Angeles Center
Sun 01:17:48 PM 34.3011 -118.6133 338° Northwest 421 484 36,000 336 Climbing Los Angeles Center
Sun 01:18:51 PM 34.4103 -118.6669 338° Northwest 423 487 36,000  Level Los Angeles Center
Sun 01:19:53 PM 34.5175 -118.7200 338° Northwest 420 483 36,000  Level Los Angeles Center
Sun 01:20:55 PM 34.6258 -118.7742 338° Northwest 419 482 36,000  Level Los Angeles Center
Sun 01:21:57 PM 34.7347 -118.8286 338° Northwest 424 488 36,000  Level Los Angeles Center
Sun 01:22:59 PM 34.8544 -118.9097 331° Northwest 423 487 36,000  Level Los Angeles Center
Sun 01:24:01 PM 34.9397 -118.9925 321° Northwest 411 473 36,000  Level Los Angeles Center
Sun 01:25:03 PM 35.0292 -119.0794 321° Northwest 411 473 36,000  Level Los Angeles Center
Sun 01:26:05 PM 35.1178 -119.1694 320° Northwest 414 476 36,000  Level Los Angeles Center
Sun 01:27:07 PM 35.2083 -119.2572 322° Northwest 416 479 36,000  Level Los Angeles Center
Sun 01:28:09 PM 35.3172 -119.3631 322° Northwest 417 480 36,000  Level Los Angeles Center
Sun 01:29:11 PM 35.4078 -119.4531 321° Northwest 419 482 36,000  Level Los Angeles Center
Sun 01:30:13 PM 35.4972 -119.5411 321° Northwest 417 480 36,000  Level Los Angeles Center
Sun 01:31:16 PM 35.5864 -119.6303 321° Northwest 415 478 36,000  Level Los Angeles Center
Sun 01:32:18 PM 35.6750 -119.7200 321° Northwest 416 479 36,000  Level Los Angeles Center
Sun 01:33:20 PM 35.7819 -119.8275 321° Northwest 416 479 36,000  Level Los Angeles Center
Sun 01:34:22 PM 35.8708 -119.9172 321° Northwest 416 479 36,000  Level Los Angeles Center
Sun 01:35:24 PM 35.9594 -120.0075 320° Northwest 415 478 36,000 -435 Level Los Angeles Center
Sun 01:36:26 PM 36.0483 -120.0964 321° Northwest 414 476 35,100 -871 Descending Los Angeles Center
Sun 01:37:28 PM 36.1378 -120.1894 320° Northwest 421 484 34,200 -930 Descending Los Angeles Center
Sun 01:38:35 PM 36.2442 -120.2972 321° Northwest 420 483 33,100 -984 Descending Oakland Center
Sun 01:39:36 PM 36.3356 -120.3886 321° Northwest 424 488 32,100 -1,033 Descending Oakland Center
Sun 01:40:37 PM 36.4253 -120.4792 321° Northwest 418 481 31,000 -1,122 Descending Oakland Center
Sun 01:41:39 PM 36.5122 -120.5725 319° Northwest 415 478 29,800 -1,805 Descending Oakland Center
Sun 01:42:40 PM 36.6156 -120.6753 321° Northwest 400 460 27,300 -2,213 Descending Oakland Center
Sun 01:43:41 PM 36.6981 -120.7606 320° Northwest 391 450 25,300 -1,902 Descending Oakland Center
Sun 01:44:43 PM 36.7733 -120.8481 317° Northwest 371 427 23,400 -1,854 Descending Oakland Center
Sun 01:45:44 PM 36.8492 -120.9342 318° Northwest 367 422 21,500 -1,820 Descending Oakland Center
Sun 01:46:45 PM 36.9217 -121.0172 318° Northwest 358 412 19,700 -1,820 Descending Oakland Center
Sun 01:47:46 PM 36.9928 -121.0994 317° Northwest 351 404 17,800 -1,854 Descending Oakland Center
Sun 01:48:48 PM 37.0656 -121.1819 318° Northwest 341 392 15,900 -1,805 Descending Oakland Center
Sun 01:49:49 PM 37.1328 -121.2603 317° Northwest 341 392 14,100 -1,756 Descending Oakland Center
Sun 01:50:51 PM 37.2011 -121.3389 318° Northwest 334 384 12,300 -1,756 Descending Oakland Center
Sun 01:51:52 PM 37.2681 -121.4167 317° Northwest 328 377 10,500 -1,574 Descending Oakland Center
Sun 01:52:53 PM 37.3442 -121.5050 317° Northwest 309 356 9,100 -1,179 Descending Oakland Center
Sun 01:53:49 PM 37.4000 -121.5667 319° Northwest 295 339 8,200 -983 Descending Northern Cal TRACON
Sun 01:54:49 PM 37.4500 -121.6333 313° West 291 335 7,200 -1,050 Descending Northern Cal TRACON
Sun 01:55:49 PM 37.5000 -121.7333 302° West 283 326 6,100 -600 Descending Northern Cal TRACON
Sun 01:56:49 PM 37.5167 -121.8167 284° West 264 304 6,000 -49 Descending Northern Cal TRACON
Sun 01:57:51 PM 37.5500 -121.9000 297° West 239 275 6,000  Level Northern Cal TRACON
Sun 01:58:49 PM 37.5833 -121.9667 302° West 218 251 6,000 -508 Level Northern Cal TRACON
Sun 01:59:49 PM 37.6000 -122.0333 288° West 223 257 5,000 -1,400 Descending Northern Cal TRACON
Sun 02:00:49 PM 37.6333 -122.1000 302° West 213 245 3,200 -1,550 Descending Northern Cal TRACON
Sun 02:01:49 PM 37.6667 -122.1500 310° West 182 209 1,900 -1,350 Descending Northern Cal TRACON
Sun 02:02:49 PM 37.6833 -122.2000 293° West 152 175 500 -1,400 Descending Northern Cal TRACON
Sun 02:05:00 PM 37.7167 -122.2167 270° West  Level FlightAware Approximate
Sun 02:12:00 PM 37.7213 -122.2212 270° West  Level Estimated

Login

Don't have an account? Register now (free) for customized features, flight alerts, and more!